Portada
METAR-TAF:

METAR-TAF

Aeroports :

Khujand, Tadjikistan

latitud: 40-12-55N, longitud: 069-41-41E, altitud: 442 m

Observació

L'informe es va fer fa 34 minuts, a les 09:00 UTC
Vent 4 kt del Nord-Est
Temperatura 14°C
Humitat 33%
Pressió 1025 hPa
Visibilitat: 7000 m

METAR: UTDL 120900Z 04002MPS 7000 NSC 14/M02 Q1025 R08/CLRD70 NOSIG RMK QFE729/0972

Hora: 14:34 (09:34 UTC)

Pronòstic

L'informe es va fer fa 3 hores i 34 minuts, a les 06:00 UTC
Pronòstic vàlid del 12 a les 07 UTC al 12 a les 16 UTC
Vent 12 kt del Est
Visibilitat: 6000 m
Evolucionant progressivament
l' 12 a les 11 UTC al 12 a les 13 UTC
Vent 10 kt del Oest/Sud-Oest
Visibilitat: 3100 m
boirina

TAF: UTDL 120600Z 1207/1216 08006MPS 6000 NSC BECMG 1211/1213 24005MPS 3100 BR

Observacions i pronòstics meteorològics de més de 4000 aeroports (METAR i TAF).

Les estacions disponibles són els punts grocs i vermells al mapa.

Posi el ratolí al punt desitjat per veure el nom de l'estació.

Feu clic per veure les observacions i els pronòstics meteorològics.

Per canviar el mapa: feu clic els botons verds amb una creu de color negre per apropar; al botó verd amb un guió per allunyar la imatge; o en les fletxes verdes per a mapes adjacents.


METAR-TAF: